sensor_id;sensor_type;location;lat;lon;timestamp;P1;durP1;ratioP1;P2;durP2;ratioP2
50853;SDS011;44154;45.506;-122.806;2023-02-01T00:02:00;3.40;;;1.45;;
50853;SDS011;44154;45.506;-122.806;2023-02-01T00:04:27;3.95;;;1.45;;
50853;SDS011;44154;45.506;-122.806;2023-02-01T00:06:53;4.15;;;1.35;;
50853;SDS011;44154;45.506;-122.806;2023-02-01T00:09:19;3.42;;;1.27;;
50853;SDS011;44154;45.506;-122.806;2023-02-01T00:11:46;3.85;;;1.27;;
50853;SDS011;44154;45.506;-122.806;2023-02-01T00:14:12;3.80;;;1.00;;
50853;SDS011;44154;45.506;-122.806;2023-02-01T00:16:38;9.50;;;1.30;;
50853;SDS011;44154;45.506;-122.806;2023-02-01T00:19:06;2.72;;;1.13;;
50853;SDS011;44154;45.506;-122.806;2023-02-01T00:21:35;4.97;;;1.75;;
50853;SDS011;44154;45.506;-122.806;2023-02-01T00:24:01;3.33;;;1.20;;
50853;SDS011;44154;45.506;-122.806;2023-02-01T00:26:33;4.30;;;1.30;;
50853;SDS011;44154;45.506;-122.806;2023-02-01T00:29:02;4.68;;;1.48;;
50853;SDS011;44154;45.506;-122.806;2023-02-01T00:31:29;6.60;;;1.38;;
50853;SDS011;44154;45.506;-122.806;2023-02-01T00:33:55;5.22;;;1.92;;
50853;SDS011;44154;45.506;-122.806;2023-02-01T00:36:22;6.22;;;1.55;;
50853;SDS011;44154;45.506;-122.806;2023-02-01T00:38:48;5.80;;;1.50;;
50853;SDS011;44154;45.506;-122.806;2023-02-01T00:41:15;7.68;;;1.23;;
50853;SDS011;44154;45.506;-122.806;2023-02-01T00:43:43;3.17;;;1.30;;
50853;SDS011;44154;45.506;-122.806;2023-02-01T00:46:10;4.43;;;1.40;;
50853;SDS011;44154;45.506;-122.806;2023-02-01T00:48:38;5.53;;;1.40;;
50853;SDS011;44154;45.506;-122.806;2023-02-01T00:51:09;6.57;;;1.20;;
50853;SDS011;44154;45.506;-122.806;2023-02-01T00:53:37;5.78;;;1.40;;
50853;SDS011;44154;45.506;-122.806;2023-02-01T00:56:03;2.75;;;1.48;;
50853;SDS011;44154;45.506;-122.806;2023-02-01T00:58:31;4.63;;;1.75;;
50853;SDS011;44154;45.506;-122.806;2023-02-01T01:01:01;4.32;;;1.80;;
50853;SDS011;44154;45.506;-122.806;2023-02-01T01:03:31;4.75;;;2.30;;
50853;SDS011;44154;45.506;-122.806;2023-02-01T01:05:59;5.53;;;2.00;;
50853;SDS011;44154;45.506;-122.806;2023-02-01T01:08:26;3.85;;;1.70;;
50853;SDS011;44154;45.506;-122.806;2023-02-01T01:10:53;6.07;;;1.60;;
50853;SDS011;44154;45.506;-122.806;2023-02-01T01:13:19;6.72;;;1.58;;
50853;SDS011;44154;45.506;-122.806;2023-02-01T01:15:45;3.42;;;1.40;;
50853;SDS011;44154;45.506;-122.806;2023-02-01T01:18:12;2.95;;;1.42;;
50853;SDS011;44154;45.506;-122.806;2023-02-01T01:20:39;2.00;;;1.20;;
50853;SDS011;44154;45.506;-122.806;2023-02-01T01:23:06;2.80;;;1.25;;
50853;SDS011;44154;45.506;-122.806;2023-02-01T01:25:37;3.00;;;1.40;;
50853;SDS011;44154;45.506;-122.806;2023-02-01T01:28:05;4.85;;;1.50;;
50853;SDS011;44154;45.506;-122.806;2023-02-01T01:30:32;2.58;;;1.40;;
50853;SDS011;44154;45.506;-122.806;2023-02-01T01:33:00;2.13;;;1.38;;
50853;SDS011;44154;45.506;-122.806;2023-02-01T01:35:26;3.10;;;1.30;;
50853;SDS011;44154;45.506;-122.806;2023-02-01T01:37:55;5.47;;;1.95;;
50853;SDS011;44154;45.506;-122.806;2023-02-01T01:40:21;5.47;;;1.70;;
50853;SDS011;44154;45.506;-122.806;2023-02-01T01:42:48;4.55;;;1.70;;
50853;SDS011;44154;45.506;-122.806;2023-02-01T01:45:25;6.18;;;1.70;;
50853;SDS011;44154;45.506;-122.806;2023-02-01T01:47:53;3.08;;;1.38;;
50853;SDS011;44154;45.506;-122.806;2023-02-01T01:50:27;2.20;;;1.20;;
50853;SDS011;44154;45.506;-122.806;2023-02-01T01:55:24;3.25;;;1.80;;
50853;SDS011;44154;45.506;-122.806;2023-02-01T01:57:56;4.13;;;2.20;;
50853;SDS011;44154;45.506;-122.806;2023-02-01T02:00:26;6.03;;;2.42;;
50853;SDS011;44154;45.506;-122.806;2023-02-01T02:02:54;10.77;;;3.80;;
50853;SDS011;44154;45.506;-122.806;2023-02-01T02:05:24;5.37;;;2.47;;
50853;SDS011;44154;45.506;-122.806;2023-02-01T02:07:52;3.50;;;2.38;;
50853;SDS011;44154;45.506;-122.806;2023-02-01T02:10:22;3.30;;;1.63;;
50853;SDS011;44154;45.506;-122.806;2023-02-01T02:13:08;3.17;;;1.80;;
50853;SDS011;44154;45.506;-122.806;2023-02-01T02:15:36;4.00;;;1.90;;
50853;SDS011;44154;45.506;-122.806;2023-02-01T02:21:30;8.15;;;1.90;;
50853;SDS011;44154;45.506;-122.806;2023-02-01T02:26:55;3.33;;;1.60;;
50853;SDS011;44154;45.506;-122.806;2023-02-01T02:29:37;3.08;;;1.60;;
50853;SDS011;44154;45.506;-122.806;2023-02-01T02:32:32;3.00;;;1.65;;
50853;SDS011;44154;45.506;-122.806;2023-02-01T02:35:14;4.88;;;1.25;;
50853;SDS011;44154;45.506;-122.806;2023-02-01T02:38:02;2.30;;;1.27;;
50853;SDS011;44154;45.506;-122.806;2023-02-01T02:40:49;2.60;;;1.20;;
50853;SDS011;44154;45.506;-122.806;2023-02-01T02:43:37;1.77;;;1.10;;
50853;SDS011;44154;45.506;-122.806;2023-02-01T02:46:37;5.07;;;1.73;;
50853;SDS011;44154;45.506;-122.806;2023-02-01T02:50:16;4.60;;;1.35;;
50853;SDS011;44154;45.506;-122.806;2023-02-01T02:52:45;5.43;;;1.60;;
50853;SDS011;44154;45.506;-122.806;2023-02-01T02:55:37;6.10;;;1.60;;
50853;SDS011;44154;45.506;-122.806;2023-02-01T02:58:05;4.78;;;1.77;;
50853;SDS011;44154;45.506;-122.806;2023-02-01T03:00:52;3.78;;;1.85;;
50853;SDS011;44154;45.506;-122.806;2023-02-01T03:03:37;7.40;;;2.67;;
50853;SDS011;44154;45.506;-122.806;2023-02-01T03:06:23;5.63;;;2.20;;
50853;SDS011;44154;45.506;-122.806;2023-02-01T03:08:50;4.90;;;1.83;;
50853;SDS011;44154;45.506;-122.806;2023-02-01T03:11:19;6.68;;;2.20;;
50853;SDS011;44154;45.506;-122.806;2023-02-01T03:13:52;4.40;;;2.10;;
50853;SDS011;44154;45.506;-122.806;2023-02-01T03:16:28;5.80;;;2.20;;
50853;SDS011;44154;45.506;-122.806;2023-02-01T03:18:58;5.35;;;2.67;;
50853;SDS011;44154;45.506;-122.806;2023-02-01T03:21:39;6.30;;;2.40;;
50853;SDS011;44154;45.506;-122.806;2023-02-01T03:24:17;5.70;;;2.17;;
50853;SDS011;44154;45.506;-122.806;2023-02-01T03:26:49;3.72;;;1.67;;
50853;SDS011;44154;45.506;-122.806;2023-02-01T03:29:22;3.40;;;1.60;;
50853;SDS011;44154;45.506;-122.806;2023-02-01T03:31:53;3.22;;;1.73;;
50853;SDS011;44154;45.506;-122.806;2023-02-01T03:34:20;3.08;;;1.73;;
50853;SDS011;44154;45.506;-122.806;2023-02-01T03:36:58;4.13;;;2.15;;
50853;SDS011;44154;45.506;-122.806;2023-02-01T03:40:11;3.28;;;1.95;;
50853;SDS011;44154;45.506;-122.806;2023-02-01T03:42:33;3.67;;;2.17;;
50853;SDS011;44154;45.506;-122.806;2023-02-01T03:47:49;5.05;;;2.00;;
50853;SDS011;44154;45.506;-122.806;2023-02-01T03:50:20;7.38;;;2.45;;
50853;SDS011;44154;45.506;-122.806;2023-02-01T03:55:25;4.72;;;1.95;;
50853;SDS011;44154;45.506;-122.806;2023-02-01T03:57:55;3.55;;;2.20;;
50853;SDS011;44154;45.506;-122.806;2023-02-01T04:00:27;3.10;;;1.70;;
50853;SDS011;44154;45.506;-122.806;2023-02-01T04:02:53;6.68;;;2.40;;
50853;SDS011;44154;45.506;-122.806;2023-02-01T04:05:20;3.03;;;1.67;;
50853;SDS011;44154;45.506;-122.806;2023-02-01T04:07:47;3.83;;;1.83;;
50853;SDS011;44154;45.506;-122.806;2023-02-01T04:10:13;3.75;;;2.10;;
50853;SDS011;44154;45.506;-122.806;2023-02-01T04:12:39;4.40;;;2.30;;
50853;SDS011;44154;45.506;-122.806;2023-02-01T04:15:06;5.53;;;2.60;;
50853;SDS011;44154;45.506;-122.806;2023-02-01T04:17:33;2.90;;;1.98;;
50853;SDS011;44154;45.506;-122.806;2023-02-01T04:19:59;5.75;;;2.42;;
50853;SDS011;44154;45.506;-122.806;2023-02-01T04:22:25;4.05;;;2.63;;
50853;SDS011;44154;45.506;-122.806;2023-02-01T04:24:51;3.58;;;2.10;;
50853;SDS011;44154;45.506;-122.806;2023-02-01T04:27:17;3.95;;;1.95;;
50853;SDS011;44154;45.506;-122.806;2023-02-01T04:29:43;2.60;;;1.70;;
50853;SDS011;44154;45.506;-122.806;2023-02-01T04:32:10;3.05;;;2.00;;
50853;SDS011;44154;45.506;-122.806;2023-02-01T04:34:36;4.03;;;2.10;;
50853;SDS011;44154;45.506;-122.806;2023-02-01T04:37:03;3.95;;;2.03;;
50853;SDS011;44154;45.506;-122.806;2023-02-01T04:39:29;3.88;;;2.30;;
50853;SDS011;44154;45.506;-122.806;2023-02-01T04:41:55;3.78;;;2.45;;
50853;SDS011;44154;45.506;-122.806;2023-02-01T04:44:21;4.50;;;2.22;;
50853;SDS011;44154;45.506;-122.806;2023-02-01T04:46:47;7.00;;;2.78;;
50853;SDS011;44154;45.506;-122.806;2023-02-01T04:49:14;7.18;;;2.80;;
50853;SDS011;44154;45.506;-122.806;2023-02-01T04:51:41;5.45;;;2.75;;
50853;SDS011;44154;45.506;-122.806;2023-02-01T04:54:07;5.70;;;2.20;;
50853;SDS011;44154;45.506;-122.806;2023-02-01T04:56:36;4.90;;;1.95;;
50853;SDS011;44154;45.506;-122.806;2023-02-01T04:59:03;3.35;;;2.00;;
50853;SDS011;44154;45.506;-122.806;2023-02-01T05:01:30;2.67;;;1.70;;
50853;SDS011;44154;45.506;-122.806;2023-02-01T05:03:56;3.67;;;2.00;;
50853;SDS011;44154;45.506;-122.806;2023-02-01T05:06:23;3.92;;;1.98;;
50853;SDS011;44154;45.506;-122.806;2023-02-01T05:08:49;3.30;;;1.70;;
50853;SDS011;44154;45.506;-122.806;2023-02-01T05:11:15;3.50;;;2.00;;
50853;SDS011;44154;45.506;-122.806;2023-02-01T05:14:00;3.25;;;2.30;;
50853;SDS011;44154;45.506;-122.806;2023-02-01T05:16:26;3.92;;;2.20;;
50853;SDS011;44154;45.506;-122.806;2023-02-01T05:18:53;3.45;;;2.05;;
50853;SDS011;44154;45.506;-122.806;2023-02-01T05:21:19;4.03;;;2.00;;
50853;SDS011;44154;45.506;-122.806;2023-02-01T05:23:45;4.43;;;1.98;;
50853;SDS011;44154;45.506;-122.806;2023-02-01T05:26:30;2.92;;;1.73;;
50853;SDS011;44154;45.506;-122.806;2023-02-01T05:28:57;2.40;;;1.80;;
50853;SDS011;44154;45.506;-122.806;2023-02-01T05:31:23;2.85;;;1.90;;
50853;SDS011;44154;45.506;-122.806;2023-02-01T05:33:49;3.40;;;1.90;;
50853;SDS011;44154;45.506;-122.806;2023-02-01T05:36:15;4.20;;;2.05;;
50853;SDS011;44154;45.506;-122.806;2023-02-01T05:38:42;3.20;;;2.20;;
50853;SDS011;44154;45.506;-122.806;2023-02-01T05:41:08;2.90;;;2.00;;
50853;SDS011;44154;45.506;-122.806;2023-02-01T05:43:34;4.72;;;2.42;;
50853;SDS011;44154;45.506;-122.806;2023-02-01T05:46:00;3.28;;;1.95;;
50853;SDS011;44154;45.506;-122.806;2023-02-01T05:48:27;2.80;;;2.05;;
50853;SDS011;44154;45.506;-122.806;2023-02-01T05:50:53;2.88;;;1.85;;
50853;SDS011;44154;45.506;-122.806;2023-02-01T05:53:19;2.88;;;2.08;;
50853;SDS011;44154;45.506;-122.806;2023-02-01T05:55:45;4.07;;;2.08;;
50853;SDS011;44154;45.506;-122.806;2023-02-01T05:58:12;4.00;;;2.30;;
50853;SDS011;44154;45.506;-122.806;2023-02-01T06:00:38;3.60;;;2.10;;
50853;SDS011;44154;45.506;-122.806;2023-02-01T06:03:05;4.43;;;2.20;;
50853;SDS011;44154;45.506;-122.806;2023-02-01T06:05:31;3.53;;;2.17;;
50853;SDS011;44154;45.506;-122.806;2023-02-01T06:07:57;3.90;;;2.47;;
50853;SDS011;44154;45.506;-122.806;2023-02-01T06:10:24;4.10;;;2.55;;
50853;SDS011;44154;45.506;-122.806;2023-02-01T06:12:50;4.65;;;2.50;;
50853;SDS011;44154;45.506;-122.806;2023-02-01T06:15:16;3.55;;;2.47;;
50853;SDS011;44154;45.506;-122.806;2023-02-01T06:17:44;3.40;;;2.10;;
50853;SDS011;44154;45.506;-122.806;2023-02-01T06:20:11;4.07;;;2.50;;
50853;SDS011;44154;45.506;-122.806;2023-02-01T06:22:38;3.38;;;2.05;;
50853;SDS011;44154;45.506;-122.806;2023-02-01T06:25:05;3.88;;;2.55;;
50853;SDS011;44154;45.506;-122.806;2023-02-01T06:27:33;4.20;;;2.90;;
50853;SDS011;44154;45.506;-122.806;2023-02-01T06:30:00;3.78;;;2.83;;
50853;SDS011;44154;45.506;-122.806;2023-02-01T06:32:27;4.47;;;2.70;;
50853;SDS011;44154;45.506;-122.806;2023-02-01T06:34:53;3.85;;;2.60;;
50853;SDS011;44154;45.506;-122.806;2023-02-01T06:37:21;4.32;;;3.13;;
50853;SDS011;44154;45.506;-122.806;2023-02-01T06:39:48;3.72;;;2.80;;
50853;SDS011;44154;45.506;-122.806;2023-02-01T06:42:14;3.75;;;2.75;;
50853;SDS011;44154;45.506;-122.806;2023-02-01T06:44:40;4.65;;;2.88;;
50853;SDS011;44154;45.506;-122.806;2023-02-01T06:47:07;3.70;;;2.45;;
50853;SDS011;44154;45.506;-122.806;2023-02-01T06:49:33;3.45;;;2.53;;
50853;SDS011;44154;45.506;-122.806;2023-02-01T06:51:59;4.47;;;3.20;;
50853;SDS011;44154;45.506;-122.806;2023-02-01T06:54:26;4.70;;;2.80;;
50853;SDS011;44154;45.506;-122.806;2023-02-01T06:56:52;4.93;;;3.05;;
50853;SDS011;44154;45.506;-122.806;2023-02-01T06:59:18;4.53;;;3.00;;
50853;SDS011;44154;45.506;-122.806;2023-02-01T07:01:45;6.15;;;3.30;;
50853;SDS011;44154;45.506;-122.806;2023-02-01T07:04:11;5.15;;;3.20;;
50853;SDS011;44154;45.506;-122.806;2023-02-01T07:06:38;4.65;;;3.15;;
50853;SDS011;44154;45.506;-122.806;2023-02-01T07:09:04;4.82;;;3.25;;
50853;SDS011;44154;45.506;-122.806;2023-02-01T07:11:31;5.88;;;3.95;;
50853;SDS011;44154;45.506;-122.806;2023-02-01T07:13:57;6.57;;;3.70;;
50853;SDS011;44154;45.506;-122.806;2023-02-01T07:16:24;5.47;;;2.90;;
50853;SDS011;44154;45.506;-122.806;2023-02-01T07:18:51;6.40;;;3.80;;
50853;SDS011;44154;45.506;-122.806;2023-02-01T07:21:18;4.93;;;3.25;;
50853;SDS011;44154;45.506;-122.806;2023-02-01T07:23:45;4.55;;;2.92;;
50853;SDS011;44154;45.506;-122.806;2023-02-01T07:26:12;4.95;;;3.42;;
50853;SDS011;44154;45.506;-122.806;2023-02-01T07:28:39;4.90;;;3.30;;
50853;SDS011;44154;45.506;-122.806;2023-02-01T07:31:07;4.05;;;2.95;;
50853;SDS011;44154;45.506;-122.806;2023-02-01T07:33:35;4.63;;;3.40;;
50853;SDS011;44154;45.506;-122.806;2023-02-01T07:36:02;6.20;;;3.45;;
50853;SDS011;44154;45.506;-122.806;2023-02-01T07:38:30;5.57;;;3.60;;
50853;SDS011;44154;45.506;-122.806;2023-02-01T07:40:57;8.27;;;3.65;;
50853;SDS011;44154;45.506;-122.806;2023-02-01T07:43:24;5.82;;;4.00;;
50853;SDS011;44154;45.506;-122.806;2023-02-01T07:45:52;6.22;;;3.20;;
50853;SDS011;44154;45.506;-122.806;2023-02-01T07:48:19;4.28;;;3.08;;
50853;SDS011;44154;45.506;-122.806;2023-02-01T07:50:47;4.15;;;2.90;;
50853;SDS011;44154;45.506;-122.806;2023-02-01T07:53:13;4.82;;;3.08;;
50853;SDS011;44154;45.506;-122.806;2023-02-01T07:55:40;4.93;;;3.00;;
50853;SDS011;44154;45.506;-122.806;2023-02-01T07:58:06;4.65;;;2.78;;
50853;SDS011;44154;45.506;-122.806;2023-02-01T08:00:32;4.68;;;2.95;;
50853;SDS011;44154;45.506;-122.806;2023-02-01T08:03:30;4.28;;;3.30;;
50853;SDS011;44154;45.506;-122.806;2023-02-01T08:05:57;5.47;;;3.30;;
50853;SDS011;44154;45.506;-122.806;2023-02-01T08:08:23;5.40;;;3.92;;
50853;SDS011;44154;45.506;-122.806;2023-02-01T08:10:49;6.25;;;3.92;;
50853;SDS011;44154;45.506;-122.806;2023-02-01T08:13:16;5.60;;;3.40;;
50853;SDS011;44154;45.506;-122.806;2023-02-01T08:15:42;4.68;;;2.88;;
50853;SDS011;44154;45.506;-122.806;2023-02-01T08:18:08;4.38;;;3.22;;
50853;SDS011;44154;45.506;-122.806;2023-02-01T08:20:36;4.28;;;3.03;;
50853;SDS011;44154;45.506;-122.806;2023-02-01T08:23:07;6.18;;;3.13;;
50853;SDS011;44154;45.506;-122.806;2023-02-01T08:25:34;3.83;;;2.83;;
50853;SDS011;44154;45.506;-122.806;2023-02-01T08:28:01;5.93;;;3.70;;
50853;SDS011;44154;45.506;-122.806;2023-02-01T08:30:28;6.05;;;3.78;;
50853;SDS011;44154;45.506;-122.806;2023-02-01T08:32:54;11.13;;;3.90;;
50853;SDS011;44154;45.506;-122.806;2023-02-01T08:35:20;7.00;;;3.33;;
50853;SDS011;44154;45.506;-122.806;2023-02-01T08:37:46;4.80;;;3.20;;
50853;SDS011;44154;45.506;-122.806;2023-02-01T08:40:14;4.65;;;3.00;;
50853;SDS011;44154;45.506;-122.806;2023-02-01T08:42:41;4.53;;;2.47;;
50853;SDS011;44154;45.506;-122.806;2023-02-01T08:45:26;4.72;;;3.20;;
50853;SDS011;44154;45.506;-122.806;2023-02-01T08:47:55;4.50;;;3.17;;
50853;SDS011;44154;45.506;-122.806;2023-02-01T08:50:22;5.72;;;3.20;;
50853;SDS011;44154;45.506;-122.806;2023-02-01T08:52:49;7.63;;;3.75;;
50853;SDS011;44154;45.506;-122.806;2023-02-01T08:55:15;9.07;;;3.72;;
50853;SDS011;44154;45.506;-122.806;2023-02-01T08:57:42;6.85;;;3.88;;
50853;SDS011;44154;45.506;-122.806;2023-02-01T09:00:11;5.72;;;3.97;;
50853;SDS011;44154;45.506;-122.806;2023-02-01T09:02:38;6.65;;;3.63;;
50853;SDS011;44154;45.506;-122.806;2023-02-01T09:05:05;6.00;;;3.30;;
50853;SDS011;44154;45.506;-122.806;2023-02-01T09:07:32;4.53;;;2.90;;
50853;SDS011;44154;45.506;-122.806;2023-02-01T09:09:59;5.60;;;2.70;;
50853;SDS011;44154;45.506;-122.806;2023-02-01T09:12:29;4.00;;;2.90;;
50853;SDS011;44154;45.506;-122.806;2023-02-01T09:14:57;4.38;;;3.10;;
50853;SDS011;44154;45.506;-122.806;2023-02-01T09:17:28;7.82;;;3.42;;
50853;SDS011;44154;45.506;-122.806;2023-02-01T09:19:55;5.45;;;3.22;;
50853;SDS011;44154;45.506;-122.806;2023-02-01T09:22:21;5.45;;;3.83;;
50853;SDS011;44154;45.506;-122.806;2023-02-01T09:24:47;5.72;;;3.45;;
50853;SDS011;44154;45.506;-122.806;2023-02-01T09:27:13;5.70;;;3.65;;
50853;SDS011;44154;45.506;-122.806;2023-02-01T09:29:39;5.78;;;2.92;;
50853;SDS011;44154;45.506;-122.806;2023-02-01T09:32:06;4.38;;;2.90;;
50853;SDS011;44154;45.506;-122.806;2023-02-01T09:34:32;3.38;;;2.63;;
50853;SDS011;44154;45.506;-122.806;2023-02-01T09:36:59;5.15;;;2.70;;
50853;SDS011;44154;45.506;-122.806;2023-02-01T09:39:25;3.67;;;2.63;;
50853;SDS011;44154;45.506;-122.806;2023-02-01T09:47:16;5.18;;;3.70;;
50853;SDS011;44154;45.506;-122.806;2023-02-01T09:49:54;5.32;;;3.35;;
50853;SDS011;44154;45.506;-122.806;2023-02-01T09:52:40;4.78;;;3.05;;
50853;SDS011;44154;45.506;-122.806;2023-02-01T09:55:15;4.47;;;3.05;;
50853;SDS011;44154;45.506;-122.806;2023-02-01T10:00:18;4.35;;;3.10;;
50853;SDS011;44154;45.506;-122.806;2023-02-01T10:02:59;3.42;;;2.60;;
50853;SDS011;44154;45.506;-122.806;2023-02-01T10:10:58;4.03;;;2.80;;
50853;SDS011;44154;45.506;-122.806;2023-02-01T10:24:39;5.38;;;3.30;;
50853;SDS011;44154;45.506;-122.806;2023-02-01T10:29:49;3.63;;;2.70;;
50853;SDS011;44154;45.506;-122.806;2023-02-01T10:34:50;3.60;;;2.47;;
50853;SDS011;44154;45.506;-122.806;2023-02-01T10:39:52;4.10;;;2.88;;
50853;SDS011;44154;45.506;-122.806;2023-02-01T10:42:21;3.78;;;2.50;;
50853;SDS011;44154;45.506;-122.806;2023-02-01T10:44:53;3.72;;;2.55;;
50853;SDS011;44154;45.506;-122.806;2023-02-01T10:47:23;3.67;;;2.58;;
50853;SDS011;44154;45.506;-122.806;2023-02-01T10:49:52;3.65;;;2.50;;
50853;SDS011;44154;45.506;-122.806;2023-02-01T10:52:23;3.55;;;2.40;;
50853;SDS011;44154;45.506;-122.806;2023-02-01T10:54:51;2.95;;;1.92;;
50853;SDS011;44154;45.506;-122.806;2023-02-01T10:57:23;2.90;;;1.95;;
50853;SDS011;44154;45.506;-122.806;2023-02-01T10:59:51;2.35;;;1.83;;
50853;SDS011;44154;45.506;-122.806;2023-02-01T11:04:46;2.47;;;1.90;;
50853;SDS011;44154;45.506;-122.806;2023-02-01T11:07:33;3.08;;;1.92;;
50853;SDS011;44154;45.506;-122.806;2023-02-01T11:10:00;3.13;;;2.03;;
50853;SDS011;44154;45.506;-122.806;2023-02-01T11:12:31;4.53;;;2.65;;
50853;SDS011;44154;45.506;-122.806;2023-02-01T11:15:03;3.22;;;2.20;;
50853;SDS011;44154;45.506;-122.806;2023-02-01T11:17:45;2.97;;;2.00;;
50853;SDS011;44154;45.506;-122.806;2023-02-01T11:20:20;4.55;;;2.35;;
50853;SDS011;44154;45.506;-122.806;2023-02-01T11:23:00;3.20;;;1.80;;
50853;SDS011;44154;45.506;-122.806;2023-02-01T11:25:27;3.80;;;1.92;;
50853;SDS011;44154;45.506;-122.806;2023-02-01T11:27:55;3.22;;;1.90;;
50853;SDS011;44154;45.506;-122.806;2023-02-01T11:30:32;3.40;;;2.08;;
50853;SDS011;44154;45.506;-122.806;2023-02-01T11:33:05;3.58;;;1.77;;
50853;SDS011;44154;45.506;-122.806;2023-02-01T11:35:40;3.47;;;1.85;;
50853;SDS011;44154;45.506;-122.806;2023-02-01T11:38:12;3.38;;;2.00;;
50853;SDS011;44154;45.506;-122.806;2023-02-01T11:44:01;2.90;;;1.85;;
50853;SDS011;44154;45.506;-122.806;2023-02-01T11:46:30;2.30;;;1.70;;
50853;SDS011;44154;45.506;-122.806;2023-02-01T11:49:13;2.42;;;1.88;;
50853;SDS011;44154;45.506;-122.806;2023-02-01T11:52:11;2.80;;;1.40;;
50853;SDS011;44154;45.506;-122.806;2023-02-01T12:03:33;2.47;;;1.98;;
50853;SDS011;44154;45.506;-122.806;2023-02-01T12:06:28;2.42;;;1.65;;
50853;SDS011;44154;45.506;-122.806;2023-02-01T12:18:00;2.45;;;1.80;;
50853;SDS011;44154;45.506;-122.806;2023-02-01T12:20:37;2.35;;;1.58;;
50853;SDS011;44154;45.506;-122.806;2023-02-01T12:41:57;2.25;;;1.65;;
50853;SDS011;44154;45.506;-122.806;2023-02-01T12:44:39;2.35;;;1.65;;
50853;SDS011;44154;45.506;-122.806;2023-02-01T12:47:21;2.58;;;1.58;;
50853;SDS011;44154;45.506;-122.806;2023-02-01T12:56:11;2.45;;;1.55;;
50853;SDS011;44154;45.506;-122.806;2023-02-01T12:58:45;2.15;;;1.58;;
50853;SDS011;44154;45.506;-122.806;2023-02-01T13:03:59;2.22;;;1.38;;
50853;SDS011;44154;45.506;-122.806;2023-02-01T13:07:20;2.47;;;1.60;;
50853;SDS011;44154;45.506;-122.806;2023-02-01T13:09:37;2.40;;;1.70;;
50853;SDS011;44154;45.506;-122.806;2023-02-01T13:12:21;2.58;;;1.83;;
50853;SDS011;44154;45.506;-122.806;2023-02-01T13:14:55;2.83;;;2.00;;
50853;SDS011;44154;45.506;-122.806;2023-02-01T13:17:30;2.33;;;1.45;;
50853;SDS011;44154;45.506;-122.806;2023-02-01T13:22:47;2.55;;;1.50;;
50853;SDS011;44154;45.506;-122.806;2023-02-01T13:28:05;3.07;;;2.17;;
50853;SDS011;44154;45.506;-122.806;2023-02-01T13:31:27;2.38;;;1.70;;
50853;SDS011;44154;45.506;-122.806;2023-02-01T13:36:38;2.70;;;1.80;;
50853;SDS011;44154;45.506;-122.806;2023-02-01T13:45:02;2.20;;;1.63;;
50853;SDS011;44154;45.506;-122.806;2023-02-01T13:47:35;2.80;;;1.60;;
50853;SDS011;44154;45.506;-122.806;2023-02-01T13:50:40;1.75;;;1.40;;
50853;SDS011;44154;45.506;-122.806;2023-02-01T13:53:11;2.60;;;1.77;;
50853;SDS011;44154;45.506;-122.806;2023-02-01T13:55:46;3.17;;;2.10;;
50853;SDS011;44154;45.506;-122.806;2023-02-01T13:58:32;2.58;;;1.83;;
50853;SDS011;44154;45.506;-122.806;2023-02-01T14:03:52;2.28;;;1.52;;
50853;SDS011;44154;45.506;-122.806;2023-02-01T14:16:44;2.63;;;1.75;;
50853;SDS011;44154;45.506;-122.806;2023-02-01T14:19:27;2.47;;;1.95;;
50853;SDS011;44154;45.506;-122.806;2023-02-01T14:21:58;2.40;;;1.73;;
50853;SDS011;44154;45.506;-122.806;2023-02-01T14:24:27;3.17;;;1.60;;
50853;SDS011;44154;45.506;-122.806;2023-02-01T14:27:00;2.30;;;1.50;;
50853;SDS011;44154;45.506;-122.806;2023-02-01T14:29:42;2.25;;;1.60;;
50853;SDS011;44154;45.506;-122.806;2023-02-01T14:32:21;2.33;;;1.50;;
50853;SDS011;44154;45.506;-122.806;2023-02-01T14:34:51;2.28;;;1.52;;
50853;SDS011;44154;45.506;-122.806;2023-02-01T14:39:55;2.92;;;1.85;;
50853;SDS011;44154;45.506;-122.806;2023-02-01T14:47:48;3.28;;;1.65;;
50853;SDS011;44154;45.506;-122.806;2023-02-01T14:50:39;1.98;;;1.35;;
50853;SDS011;44154;45.506;-122.806;2023-02-01T15:00:52;2.60;;;1.50;;
50853;SDS011;44154;45.506;-122.806;2023-02-01T15:05:55;2.67;;;1.50;;
50853;SDS011;44154;45.506;-122.806;2023-02-01T15:08:33;2.75;;;1.38;;
50853;SDS011;44154;45.506;-122.806;2023-02-01T15:11:13;2.35;;;1.60;;
50853;SDS011;44154;45.506;-122.806;2023-02-01T15:13:47;2.08;;;1.45;;
50853;SDS011;44154;45.506;-122.806;2023-02-01T15:16:16;2.05;;;1.30;;
50853;SDS011;44154;45.506;-122.806;2023-02-01T15:18:42;1.77;;;1.20;;
50853;SDS011;44154;45.506;-122.806;2023-02-01T15:21:21;2.47;;;1.40;;
50853;SDS011;44154;45.506;-122.806;2023-02-01T15:23:49;2.15;;;1.48;;
50853;SDS011;44154;45.506;-122.806;2023-02-01T15:26:28;2.50;;;1.55;;
50853;SDS011;44154;45.506;-122.806;2023-02-01T15:28:59;6.25;;;1.67;;
50853;SDS011;44154;45.506;-122.806;2023-02-01T15:31:39;3.38;;;1.80;;
50853;SDS011;44154;45.506;-122.806;2023-02-01T15:34:10;3.70;;;1.35;;
50853;SDS011;44154;45.506;-122.806;2023-02-01T15:36:37;4.43;;;1.60;;
50853;SDS011;44154;45.506;-122.806;2023-02-01T15:41:47;1.85;;;1.50;;
50853;SDS011;44154;45.506;-122.806;2023-02-01T15:46:53;2.72;;;1.70;;
50853;SDS011;44154;45.506;-122.806;2023-02-01T15:49:22;3.70;;;1.52;;
50853;SDS011;44154;45.506;-122.806;2023-02-01T15:51:59;6.72;;;3.03;;
50853;SDS011;44154;45.506;-122.806;2023-02-01T15:54:31;4.25;;;2.20;;
50853;SDS011;44154;45.506;-122.806;2023-02-01T15:57:06;3.22;;;1.80;;
50853;SDS011;44154;45.506;-122.806;2023-02-01T15:59:37;3.17;;;1.90;;
50853;SDS011;44154;45.506;-122.806;2023-02-01T16:02:25;2.63;;;1.80;;
50853;SDS011;44154;45.506;-122.806;2023-02-01T16:05:03;2.92;;;1.60;;
50853;SDS011;44154;45.506;-122.806;2023-02-01T16:07:32;3.38;;;2.05;;
50853;SDS011;44154;45.506;-122.806;2023-02-01T16:10:00;2.47;;;1.80;;
50853;SDS011;44154;45.506;-122.806;2023-02-01T16:12:33;2.28;;;1.60;;
50853;SDS011;44154;45.506;-122.806;2023-02-01T16:15:23;2.38;;;1.58;;
50853;SDS011;44154;45.506;-122.806;2023-02-01T16:17:50;2.90;;;1.75;;
50853;SDS011;44154;45.506;-122.806;2023-02-01T16:20:16;2.70;;;1.92;;
50853;SDS011;44154;45.506;-122.806;2023-02-01T16:22:42;2.58;;;2.00;;
50853;SDS011;44154;45.506;-122.806;2023-02-01T16:25:08;3.35;;;2.20;;
50853;SDS011;44154;45.506;-122.806;2023-02-01T16:27:35;3.65;;;1.80;;
50853;SDS011;44154;45.506;-122.806;2023-02-01T16:30:02;5.07;;;2.35;;
50853;SDS011;44154;45.506;-122.806;2023-02-01T16:32:28;2.80;;;1.60;;
50853;SDS011;44154;45.506;-122.806;2023-02-01T16:34:56;3.92;;;2.08;;
50853;SDS011;44154;45.506;-122.806;2023-02-01T16:37:23;3.75;;;2.38;;
50853;SDS011;44154;45.506;-122.806;2023-02-01T16:39:52;4.07;;;2.13;;
50853;SDS011;44154;45.506;-122.806;2023-02-01T16:42:18;3.13;;;1.88;;
50853;SDS011;44154;45.506;-122.806;2023-02-01T16:44:44;4.55;;;2.60;;
50853;SDS011;44154;45.506;-122.806;2023-02-01T16:47:11;5.13;;;2.60;;
50853;SDS011;44154;45.506;-122.806;2023-02-01T16:49:43;4.32;;;2.60;;
50853;SDS011;44154;45.506;-122.806;2023-02-01T16:52:14;4.25;;;2.30;;
50853;SDS011;44154;45.506;-122.806;2023-02-01T16:54:49;3.42;;;2.15;;
50853;SDS011;44154;45.506;-122.806;2023-02-01T16:57:16;3.58;;;2.00;;
50853;SDS011;44154;45.506;-122.806;2023-02-01T16:59:44;5.03;;;2.28;;